createdAt,value
2019-05-21T00:00:54.698Z,997.80
2019-05-21T00:01:54.684Z,997.81
2019-05-21T00:02:54.693Z,997.81
2019-05-21T00:03:54.665Z,997.81
2019-05-21T00:04:54.644Z,997.73
2019-05-21T00:05:54.641Z,997.82
2019-05-21T00:06:54.641Z,997.71
2019-05-21T00:07:54.664Z,997.69
2019-05-21T00:08:54.599Z,997.67
2019-05-21T00:09:54.594Z,997.71
2019-05-21T00:10:54.579Z,997.78
2019-05-21T00:11:54.580Z,997.77
2019-05-21T00:12:54.591Z,997.61
2019-05-21T00:13:54.545Z,997.66
2019-05-21T00:14:54.535Z,997.65
2019-05-21T00:15:54.552Z,997.75
2019-05-21T00:16:54.519Z,997.71
2019-05-21T00:17:54.495Z,997.65
2019-05-21T00:18:54.551Z,997.58
2019-05-21T00:19:54.482Z,997.76
2019-05-21T00:20:54.492Z,997.74
2019-05-21T00:21:54.484Z,997.67
2019-05-21T00:22:54.460Z,997.69
2019-05-21T00:23:54.475Z,997.60
2019-05-21T00:24:54.469Z,997.69
2019-05-21T00:25:54.409Z,997.69
2019-05-21T00:26:54.409Z,997.76
2019-05-21T00:27:54.390Z,997.82
2019-05-21T00:28:54.393Z,997.78
2019-05-21T00:29:54.362Z,997.93
2019-05-21T00:30:54.368Z,997.89
2019-05-21T00:31:54.362Z,997.83
2019-05-21T00:32:54.348Z,997.82
2019-05-21T00:33:54.344Z,997.82
2019-05-21T00:34:54.410Z,997.85
2019-05-21T00:35:54.301Z,997.78
2019-05-21T00:36:54.420Z,997.94
2019-05-21T00:37:54.280Z,997.79
2019-05-21T00:38:54.308Z,997.84
2019-05-21T00:39:54.267Z,997.95
2019-05-21T00:40:54.253Z,997.88
2019-05-21T00:41:54.263Z,997.82
2019-05-21T00:42:54.226Z,997.88
2019-05-21T00:43:54.222Z,997.80
2019-05-21T00:44:54.236Z,997.80
2019-05-21T00:45:54.210Z,997.95
2019-05-21T00:46:54.188Z,997.95
2019-05-21T00:47:54.178Z,998.02
2019-05-21T00:48:54.162Z,997.94
2019-05-21T00:49:54.161Z,998.06
2019-05-21T00:50:54.139Z,997.94
2019-05-21T00:52:06.528Z,997.92
2019-05-21T00:52:55.110Z,997.89
2019-05-21T00:53:54.110Z,998.02
2019-05-21T00:54:54.118Z,997.94
2019-05-21T00:55:54.087Z,998.04
2019-05-21T00:56:54.076Z,997.99
2019-05-21T00:57:54.059Z,997.98
2019-05-21T00:58:54.050Z,998.00
2019-05-21T00:59:54.071Z,997.94
2019-05-21T01:00:54.026Z,998.03
2019-05-21T01:01:54.031Z,997.93
2019-05-21T01:02:54.009Z,997.88
2019-05-21T01:03:53.995Z,997.90
2019-05-21T01:05:00.722Z,998.04
2019-05-21T01:05:54.971Z,997.95
2019-05-21T01:06:53.983Z,998.05
2019-05-21T01:07:53.953Z,997.90
2019-05-21T01:08:53.944Z,997.95
2019-05-21T01:09:53.926Z,997.95
2019-05-21T01:10:53.939Z,997.91
2019-05-21T01:11:53.923Z,998.08
2019-05-21T01:12:53.899Z,998.09
2019-05-21T01:13:53.875Z,998.02
2019-05-21T01:14:53.895Z,998.04
2019-05-21T01:15:53.895Z,997.98
2019-05-21T01:16:53.862Z,997.97
2019-05-21T01:17:53.835Z,997.97
2019-05-21T01:18:53.827Z,997.95
2019-05-21T01:19:53.822Z,997.98
2019-05-21T01:20:53.838Z,997.99
2019-05-21T01:21:53.814Z,997.91
2019-05-21T01:22:53.795Z,998.09
2019-05-21T01:23:53.779Z,997.98
2019-05-21T01:24:53.762Z,997.90
2019-05-21T01:25:53.771Z,998.00
2019-05-21T01:26:53.737Z,998.03
2019-05-21T01:27:53.725Z,997.85
2019-05-21T01:28:53.715Z,997.96
2019-05-21T01:29:53.713Z,997.94
2019-05-21T01:30:53.717Z,998.03
2019-05-21T01:31:53.681Z,997.90
2019-05-21T01:32:53.720Z,997.88
2019-05-21T01:33:53.696Z,997.85
2019-05-21T01:34:53.651Z,997.90
2019-05-21T01:35:53.690Z,998.02
2019-05-21T01:36:53.649Z,997.90
2019-05-21T01:37:53.615Z,997.91
2019-05-21T01:38:53.613Z,997.84
2019-05-21T01:39:53.590Z,997.90
2019-05-21T01:40:53.593Z,997.79
2019-05-21T01:41:53.599Z,997.88
2019-05-21T01:42:53.562Z,997.77
2019-05-21T01:43:53.556Z,997.89
2019-05-21T01:44:53.546Z,997.81
2019-05-21T01:45:53.535Z,997.86
2019-05-21T01:46:53.538Z,997.66
2019-05-21T01:47:53.502Z,997.75
2019-05-21T01:48:53.514Z,997.76
2019-05-21T01:49:53.483Z,997.74
2019-05-21T01:50:53.468Z,997.73
2019-05-21T01:51:53.491Z,997.74
2019-05-21T01:52:53.448Z,997.74
2019-05-21T01:53:53.447Z,997.83
2019-05-21T01:54:53.426Z,997.84
2019-05-21T01:55:53.420Z,997.85
2019-05-21T01:56:53.427Z,997.86
2019-05-21T01:57:53.402Z,997.89
2019-05-21T01:58:53.384Z,997.87
2019-05-21T01:59:53.378Z,997.92
2019-05-21T02:00:53.361Z,997.84
2019-05-21T02:01:53.376Z,997.83
2019-05-21T02:02:53.342Z,997.99
2019-05-21T02:03:53.335Z,997.80
2019-05-21T02:04:53.388Z,997.81
2019-05-21T02:05:53.297Z,997.89
2019-05-21T02:06:53.322Z,997.74
2019-05-21T02:07:53.280Z,997.73
2019-05-21T02:08:53.276Z,997.66
2019-05-21T02:09:53.256Z,997.81
2019-05-21T02:10:53.251Z,997.75
2019-05-21T02:11:53.267Z,997.88
2019-05-21T02:12:53.218Z,997.81
2019-05-21T02:13:53.250Z,997.86
2019-05-21T02:14:53.226Z,997.90
2019-05-21T02:15:53.194Z,997.97
2019-05-21T02:16:53.196Z,998.04
2019-05-21T02:17:53.212Z,997.96
2019-05-21T02:18:53.148Z,997.95
2019-05-21T02:19:53.146Z,997.95
2019-05-21T02:20:53.138Z,998.00
2019-05-21T02:21:53.127Z,997.90
2019-05-21T02:22:53.130Z,997.95
2019-05-21T02:23:53.126Z,997.85
2019-05-21T02:24:53.117Z,997.82
2019-05-21T02:25:53.076Z,997.83
2019-05-21T02:26:53.070Z,997.86
2019-05-21T02:27:53.134Z,997.75
2019-05-21T02:28:53.054Z,997.83
2019-05-21T02:29:53.035Z,997.90
2019-05-21T02:30:56.371Z,997.94
2019-05-21T02:31:53.012Z,997.88
2019-05-21T02:32:53.028Z,998.06
2019-05-21T02:33:53.005Z,997.99
2019-05-21T02:34:52.989Z,997.99
2019-05-21T02:35:54.908Z,997.99
2019-05-21T02:36:52.988Z,998.01
2019-05-21T02:37:52.994Z,998.01
2019-05-21T02:38:52.935Z,998.00
2019-05-21T02:39:52.933Z,998.04
2019-05-21T02:40:52.925Z,997.97
2019-05-21T02:41:52.903Z,998.03
2019-05-21T02:42:52.908Z,997.97
2019-05-21T02:43:52.878Z,997.94
2019-05-21T02:44:54.346Z,998.01
2019-05-21T02:45:52.862Z,998.00
2019-05-21T02:46:52.849Z,998.18
2019-05-21T02:47:52.884Z,998.18
2019-05-21T02:48:52.839Z,998.23
2019-05-21T02:49:52.814Z,998.11
2019-05-21T02:50:52.819Z,998.17
2019-05-21T02:51:52.789Z,998.21
2019-05-21T02:52:52.802Z,998.16
2019-05-21T02:53:52.772Z,998.28
2019-05-21T02:54:52.785Z,998.19
2019-05-21T02:55:52.750Z,998.22
2019-05-21T02:56:52.747Z,998.22
2019-05-21T02:57:52.769Z,998.17
2019-05-21T02:58:52.726Z,998.31
2019-05-21T02:59:52.706Z,998.19
2019-05-21T03:00:52.686Z,998.35
2019-05-21T03:01:52.676Z,998.36
2019-05-21T03:02:52.695Z,998.37
2019-05-21T03:03:52.680Z,998.41
2019-05-21T03:04:52.671Z,998.33
2019-05-21T03:05:52.636Z,998.32
2019-05-21T03:06:52.642Z,998.36
2019-05-21T03:07:52.664Z,998.31
2019-05-21T03:08:52.604Z,998.52
2019-05-21T03:09:52.590Z,998.41
2019-05-21T03:10:52.585Z,998.52
2019-05-21T03:11:52.578Z,998.43
2019-05-21T03:12:52.578Z,998.41
2019-05-21T03:13:52.697Z,998.49
2019-05-21T03:14:52.532Z,998.36
2019-05-21T03:15:52.538Z,998.30
2019-05-21T03:16:52.505Z,998.35
2019-05-21T03:17:52.532Z,998.44
2019-05-21T03:18:52.495Z,998.34
2019-05-21T03:19:52.482Z,998.39
2019-05-21T03:20:52.475Z,998.35
2019-05-21T03:21:52.475Z,998.41
2019-05-21T03:22:52.476Z,998.40
2019-05-21T03:23:52.428Z,998.36
2019-05-21T03:24:52.435Z,998.36
2019-05-21T03:25:52.430Z,998.35
2019-05-21T03:26:52.410Z,998.32
2019-05-21T03:27:52.429Z,998.37
2019-05-21T03:28:52.396Z,998.35
2019-05-21T03:29:52.422Z,998.34
2019-05-21T03:30:52.404Z,998.38
2019-05-21T03:31:52.358Z,998.48
2019-05-21T03:32:52.376Z,998.45
2019-05-21T03:33:52.518Z,998.45
2019-05-21T03:34:52.331Z,998.45
2019-05-21T03:35:52.300Z,998.43
2019-05-21T03:36:52.303Z,998.58
2019-05-21T03:37:52.316Z,998.61
2019-05-21T03:38:52.277Z,998.42
2019-05-21T03:39:52.264Z,998.52
2019-05-21T03:40:52.248Z,998.66
2019-05-21T03:41:52.239Z,998.65
2019-05-21T03:42:52.261Z,998.69
2019-05-21T03:43:52.223Z,998.66
2019-05-21T03:44:59.937Z,998.65
2019-05-21T03:45:53.189Z,998.62
2019-05-21T03:46:52.191Z,998.68
2019-05-21T03:47:52.183Z,998.51
2019-05-21T03:48:52.171Z,998.69
2019-05-21T03:49:52.148Z,998.57
2019-05-21T03:50:52.131Z,998.59
2019-05-21T03:51:52.189Z,998.58
2019-05-21T03:52:52.124Z,998.57
2019-05-21T03:53:52.125Z,998.65
2019-05-21T03:54:52.089Z,998.54
2019-05-21T03:55:52.085Z,998.67
2019-05-21T03:56:52.064Z,998.68
2019-05-21T03:57:52.063Z,998.61
2019-05-21T03:58:52.082Z,998.61
2019-05-21T03:59:52.065Z,998.64
2019-05-21T04:00:52.065Z,998.77
2019-05-21T04:01:52.022Z,998.64
2019-05-21T04:02:52.005Z,998.68
2019-05-21T04:03:52.012Z,998.67
2019-05-21T04:04:51.987Z,998.73
2019-05-21T04:05:51.962Z,998.62
2019-05-21T04:06:52.769Z,998.62
2019-05-21T04:07:51.988Z,998.62
2019-05-21T04:08:51.969Z,998.72
2019-05-21T04:09:51.931Z,998.64
2019-05-21T04:10:51.914Z,998.59
2019-05-21T04:11:53.233Z,998.60
2019-05-21T04:12:51.905Z,998.57
2019-05-21T04:13:51.923Z,998.71
2019-05-21T04:14:51.869Z,998.69
2019-05-21T04:15:51.865Z,998.61
2019-05-21T04:16:51.845Z,998.59
2019-05-21T04:17:51.843Z,998.63
2019-05-21T04:18:51.855Z,998.60
2019-05-21T04:19:51.814Z,998.58
2019-05-21T04:20:51.800Z,998.61
2019-05-21T04:21:51.814Z,998.73
2019-05-21T04:22:51.773Z,998.60
2019-05-21T04:23:51.800Z,998.74
2019-05-21T04:24:51.752Z,998.64
2019-05-21T04:25:51.786Z,998.72
2019-05-21T04:26:51.753Z,998.71
2019-05-21T04:27:51.738Z,998.70
2019-05-21T04:28:51.757Z,998.78
2019-05-21T04:29:51.704Z,998.84
2019-05-21T04:30:51.714Z,998.67
2019-05-21T04:31:51.710Z,998.61
2019-05-21T04:32:51.686Z,998.67
2019-05-21T04:33:51.691Z,998.64
2019-05-21T04:34:51.652Z,998.72
2019-05-21T04:35:51.662Z,998.62
2019-05-21T04:37:08.845Z,998.62
2019-05-21T04:37:52.635Z,998.59
2019-05-21T04:38:51.631Z,998.58
2019-05-21T04:39:51.621Z,998.60
2019-05-21T04:40:51.581Z,998.61
2019-05-21T04:41:51.566Z,998.63
2019-05-21T04:42:51.582Z,998.67
2019-05-21T04:43:51.576Z,998.61
2019-05-21T04:44:51.533Z,998.65
2019-05-21T04:45:51.526Z,998.68
2019-05-21T04:46:51.518Z,998.77
2019-05-21T04:47:51.504Z,998.67
2019-05-21T04:48:51.514Z,998.68
2019-05-21T04:49:51.494Z,998.74
2019-05-21T04:50:51.504Z,998.83
2019-05-21T04:51:51.463Z,998.71
2019-05-21T04:52:51.448Z,998.70
2019-05-21T04:53:51.470Z,998.65
2019-05-21T04:54:52.324Z,998.71
2019-05-21T04:55:51.419Z,998.64
2019-05-21T04:56:51.405Z,998.81
2019-05-21T04:57:51.400Z,998.81
2019-05-21T04:58:51.409Z,998.69
2019-05-21T04:59:51.366Z,998.72
2019-05-21T05:00:51.394Z,998.72
2019-05-21T05:01:51.346Z,998.72
2019-05-21T05:02:51.340Z,998.84
2019-05-21T05:03:51.333Z,998.85
2019-05-21T05:04:51.342Z,998.79
2019-05-21T05:05:51.309Z,998.81
2019-05-21T05:06:51.334Z,998.91
2019-05-21T05:07:51.282Z,998.89
2019-05-21T05:08:51.264Z,998.92
2019-05-21T05:09:51.283Z,998.74
2019-05-21T05:10:51.252Z,998.81
2019-05-21T05:11:51.234Z,998.77
2019-05-21T05:12:51.229Z,998.94
2019-05-21T05:13:51.221Z,998.81
2019-05-21T05:14:51.234Z,998.85
2019-05-21T05:15:51.197Z,998.91
2019-05-21T05:16:51.189Z,998.84
2019-05-21T05:17:51.213Z,998.86
2019-05-21T05:18:51.152Z,998.81
2019-05-21T05:19:51.180Z,998.93
2019-05-21T05:20:51.193Z,998.77
2019-05-21T05:21:51.139Z,998.78
2019-05-21T05:22:51.109Z,998.77
2019-05-21T05:23:51.101Z,998.75
2019-05-21T05:24:51.139Z,998.79
2019-05-21T05:25:51.089Z,998.72
2019-05-21T05:26:51.077Z,998.74
2019-05-21T05:27:51.055Z,998.82
2019-05-21T05:28:51.053Z,998.78
2019-05-21T05:29:51.063Z,998.88
2019-05-21T05:30:51.034Z,998.92
2019-05-21T05:31:51.025Z,998.86
2019-05-21T05:32:51.010Z,998.85
2019-05-21T05:33:50.989Z,998.99
2019-05-21T05:34:51.014Z,998.86
2019-05-21T05:35:50.969Z,998.83
2019-05-21T05:36:50.964Z,998.97
2019-05-21T05:37:50.968Z,998.82
2019-05-21T05:38:50.992Z,998.83
2019-05-21T05:39:50.944Z,998.88
2019-05-21T05:40:50.909Z,998.89
2019-05-21T05:41:51.135Z,999.02
2019-05-21T05:42:50.909Z,998.99
2019-05-21T05:43:50.886Z,999.03
2019-05-21T05:44:50.908Z,998.88
2019-05-21T05:45:50.869Z,998.94
2019-05-21T05:46:50.836Z,998.89
2019-05-21T05:47:50.857Z,998.93
2019-05-21T05:48:50.832Z,999.07
2019-05-21T05:49:50.851Z,998.90
2019-05-21T05:50:50.807Z,998.93
2019-05-21T05:51:50.790Z,998.89
2019-05-21T05:52:50.793Z,999.06
2019-05-21T05:53:50.764Z,998.95
2019-05-21T05:54:50.816Z,998.96
2019-05-21T05:55:50.783Z,998.93
2019-05-21T05:56:50.749Z,998.98
2019-05-21T05:57:50.722Z,999.01
2019-05-21T05:58:50.713Z,999.00
2019-05-21T05:59:50.753Z,998.98
2019-05-21T06:00:50.691Z,998.97
2019-05-21T06:01:50.692Z,999.01
2019-05-21T06:02:50.660Z,998.99
2019-05-21T06:03:50.661Z,998.96
2019-05-21T06:04:50.672Z,999.01
2019-05-21T06:05:50.643Z,999.07
2019-05-21T06:06:50.744Z,999.02
2019-05-21T06:07:59.308Z,999.06
2019-05-21T06:08:51.606Z,999.02
2019-05-21T06:09:50.606Z,998.99
2019-05-21T06:10:50.708Z,999.00
2019-05-21T06:11:50.594Z,998.96
2019-05-21T06:12:50.557Z,999.06
2019-05-21T06:13:50.558Z,999.03
2019-05-21T06:14:50.565Z,999.07
2019-05-21T06:15:50.520Z,999.04
2019-05-21T06:16:50.526Z,999.00
2019-05-21T06:17:50.540Z,999.02
2019-05-21T06:18:50.503Z,998.83
2019-05-21T06:19:50.507Z,998.90
2019-05-21T06:20:50.472Z,998.99
2019-05-21T06:21:50.455Z,998.92
2019-05-21T06:22:50.486Z,998.98
2019-05-21T06:23:50.435Z,998.97
2019-05-21T06:24:50.447Z,998.92
2019-05-21T06:25:50.420Z,998.93
2019-05-21T06:26:50.408Z,998.85
2019-05-21T06:27:50.399Z,998.85
2019-05-21T06:28:50.407Z,999.01
2019-05-21T06:29:50.397Z,999.00
2019-05-21T06:30:50.366Z,998.88
2019-05-21T06:31:50.343Z,998.85
2019-05-21T06:32:50.337Z,998.86
2019-05-21T06:33:50.335Z,998.96
2019-05-21T06:34:50.341Z,998.85
2019-05-21T06:35:50.329Z,998.82
2019-05-21T06:36:50.294Z,998.98
2019-05-21T06:37:50.286Z,998.99
2019-05-21T06:38:50.265Z,998.92
2019-05-21T06:39:50.283Z,998.95
2019-05-21T06:40:50.278Z,998.99
2019-05-21T06:41:50.253Z,999.06
2019-05-21T06:42:50.229Z,999.04
2019-05-21T06:43:50.213Z,999.00
2019-05-21T06:44:50.269Z,999.00
2019-05-21T06:45:50.187Z,999.00
2019-05-21T06:46:50.185Z,999.02
2019-05-21T06:47:50.172Z,999.09
2019-05-21T06:48:50.165Z,999.09
2019-05-21T06:49:50.180Z,999.15
2019-05-21T06:50:50.152Z,999.13
2019-05-21T06:51:50.142Z,999.13
2019-05-21T06:52:50.120Z,999.12
2019-05-21T06:53:50.099Z,999.13
2019-05-21T06:54:50.116Z,999.18
2019-05-21T06:55:50.119Z,999.19
2019-05-21T06:56:50.069Z,999.21
2019-05-21T06:57:50.059Z,999.20
2019-05-21T06:58:50.043Z,999.28
2019-05-21T06:59:50.043Z,999.30
2019-05-21T07:00:50.091Z,999.19
2019-05-21T07:01:50.008Z,999.09
2019-05-21T07:02:50.002Z,999.14
2019-05-21T07:03:49.996Z,999.18
2019-05-21T07:04:49.979Z,999.13
2019-05-21T07:05:58.990Z,999.16
2019-05-21T07:06:50.955Z,999.12
2019-05-21T07:07:49.961Z,999.26
2019-05-21T07:08:49.927Z,999.10
2019-05-21T07:09:49.921Z,999.27
2019-05-21T07:10:49.979Z,999.16
2019-05-21T07:11:49.904Z,999.14
2019-05-21T07:12:49.883Z,999.24
2019-05-21T07:13:49.876Z,999.26
2019-05-21T07:14:49.867Z,999.09
2019-05-21T07:15:49.877Z,999.12
2019-05-21T07:16:49.841Z,999.24
2019-05-21T07:17:49.843Z,999.12
2019-05-21T07:18:49.817Z,999.18
2019-05-21T07:19:49.801Z,999.26
2019-05-21T07:20:49.827Z,999.32
2019-05-21T07:21:49.791Z,999.24
2019-05-21T07:22:49.896Z,999.19
2019-05-21T07:23:49.760Z,999.22
2019-05-21T07:24:49.784Z,999.27
2019-05-21T07:25:49.740Z,999.38
2019-05-21T07:26:49.755Z,999.26
2019-05-21T07:27:49.732Z,999.26
2019-05-21T07:28:49.725Z,999.29
2019-05-21T07:29:49.694Z,999.39
2019-05-21T07:30:49.698Z,999.19
2019-05-21T07:31:49.705Z,999.25
2019-05-21T07:32:49.699Z,999.26
2019-05-21T07:33:49.653Z,999.25
2019-05-21T07:34:49.648Z,999.43
2019-05-21T07:35:49.686Z,999.31
2019-05-21T07:36:49.642Z,999.29
2019-05-21T07:37:49.611Z,999.28
2019-05-21T07:38:53.832Z,999.32
2019-05-21T07:39:49.600Z,999.41
2019-05-21T07:40:49.568Z,999.37
2019-05-21T07:41:49.586Z,999.26
2019-05-21T07:42:49.554Z,999.31
2019-05-21T07:43:49.575Z,999.41
2019-05-21T07:44:49.520Z,999.30
2019-05-21T07:45:49.543Z,999.42
2019-05-21T07:46:49.553Z,999.34
2019-05-21T07:47:49.501Z,999.39
2019-05-21T07:48:49.481Z,999.29
2019-05-21T07:49:49.486Z,999.34
2019-05-21T07:50:49.464Z,999.31
2019-05-21T07:51:49.502Z,999.42
2019-05-21T07:52:49.450Z,999.41
2019-05-21T07:53:49.427Z,999.35
2019-05-21T07:54:49.418Z,999.34
2019-05-21T07:55:49.410Z,999.47
2019-05-21T07:56:49.419Z,999.38
2019-05-21T07:57:49.381Z,999.44
2019-05-21T07:58:49.381Z,999.38
2019-05-21T07:59:49.361Z,999.50
2019-05-21T08:00:49.388Z,999.55
2019-05-21T08:01:49.350Z,999.46
2019-05-21T08:02:49.355Z,999.52
2019-05-21T08:03:49.312Z,999.58
2019-05-21T08:04:49.336Z,999.61
2019-05-21T08:05:49.329Z,999.59
2019-05-21T08:06:49.289Z,999.46
2019-05-21T08:07:49.304Z,999.40
2019-05-21T08:08:49.267Z,999.56
2019-05-21T08:09:49.276Z,999.44
2019-05-21T08:10:49.254Z,999.58
2019-05-21T08:11:49.242Z,999.41
2019-05-21T08:12:49.237Z,999.41
2019-05-21T08:13:49.231Z,999.47
2019-05-21T08:14:49.201Z,999.53
2019-05-21T08:15:49.188Z,999.56
2019-05-21T08:16:49.178Z,999.63
2019-05-21T08:17:49.186Z,999.56
2019-05-21T08:18:49.149Z,999.48
2019-05-21T08:19:49.143Z,999.61
2019-05-21T08:20:49.131Z,999.65
2019-05-21T08:21:49.126Z,999.54
2019-05-21T08:22:49.129Z,999.53
2019-05-21T08:23:49.101Z,999.52
2019-05-21T08:24:49.081Z,999.64
2019-05-21T08:25:49.081Z,999.53
2019-05-21T08:26:49.095Z,999.51
2019-05-21T08:27:49.088Z,999.55
2019-05-21T08:28:49.045Z,999.65
2019-05-21T08:29:49.027Z,999.51
2019-05-21T08:30:49.066Z,999.47
2019-05-21T08:31:49.001Z,999.58
2019-05-21T08:32:49.014Z,999.50
2019-05-21T08:33:49.005Z,999.63
2019-05-21T08:34:48.976Z,999.67
2019-05-21T08:35:48.972Z,999.61
2019-05-21T08:36:48.948Z,999.54
2019-05-21T08:37:48.938Z,999.52
2019-05-21T08:38:48.946Z,999.62
2019-05-21T08:39:48.921Z,999.63
2019-05-21T08:40:48.903Z,999.62
2019-05-21T08:41:48.913Z,999.64
2019-05-21T08:42:48.886Z,999.74
2019-05-21T08:43:48.898Z,999.59
2019-05-21T08:44:48.884Z,999.60
2019-05-21T08:45:48.878Z,999.68
2019-05-21T08:46:48.857Z,999.73
2019-05-21T08:47:48.845Z,999.63
2019-05-21T08:48:48.854Z,999.61
2019-05-21T08:49:48.808Z,999.71
2019-05-21T08:50:48.792Z,999.65
2019-05-21T08:51:48.787Z,999.54
2019-05-21T08:52:48.798Z,999.70
2019-05-21T08:53:48.790Z,999.58
2019-05-21T08:54:48.770Z,999.57
2019-05-21T08:55:48.738Z,999.69
2019-05-21T08:56:48.741Z,999.64
2019-05-21T08:58:05.732Z,999.54
2019-05-21T08:58:49.789Z,999.56
2019-05-21T08:59:48.723Z,999.60
2019-05-21T09:00:48.706Z,999.66
2019-05-21T09:01:48.674Z,999.73
2019-05-21T09:02:48.672Z,999.64
2019-05-21T09:03:48.670Z,999.68
2019-05-21T09:04:48.722Z,999.79
2019-05-21T09:05:48.642Z,999.76
2019-05-21T09:06:48.627Z,999.69
2019-05-21T09:07:53.348Z,999.59
2019-05-21T09:08:49.594Z,999.66
2019-05-21T09:09:51.184Z,999.84
2019-05-21T09:10:48.581Z,999.81
2019-05-21T09:11:48.572Z,999.70
2019-05-21T09:12:48.567Z,999.87
2019-05-21T09:13:48.541Z,999.72
2019-05-21T09:14:48.558Z,999.72
2019-05-21T09:15:48.517Z,999.91
2019-05-21T09:16:48.525Z,999.75
2019-05-21T09:17:48.496Z,999.83
2019-05-21T09:18:48.485Z,999.87
2019-05-21T09:19:48.497Z,999.79
2019-05-21T09:20:48.468Z,999.89
2019-05-21T09:21:48.504Z,999.78
2019-05-21T09:22:48.449Z,999.84
2019-05-21T09:23:48.427Z,999.94
2019-05-21T09:24:48.433Z,999.95
2019-05-21T09:25:49.691Z,999.93
2019-05-21T09:26:48.458Z,999.90
2019-05-21T09:27:48.391Z,999.89
2019-05-21T09:28:48.380Z,1000.00
2019-05-21T09:29:48.401Z,999.96
2019-05-21T09:30:48.366Z,1000.01
2019-05-21T09:31:48.349Z,999.98
2019-05-21T09:32:48.397Z,1000.02
2019-05-21T09:33:48.318Z,999.87
2019-05-21T09:34:49.488Z,1000.04
2019-05-21T09:35:48.339Z,999.85
2019-05-21T09:36:48.310Z,999.94
2019-05-21T09:37:48.274Z,1000.03
2019-05-21T09:38:48.273Z,999.98
2019-05-21T09:39:48.257Z,999.99
2019-05-21T09:40:48.259Z,999.93
2019-05-21T09:41:48.230Z,1000.06
2019-05-21T09:42:48.224Z,999.91
2019-05-21T09:43:48.247Z,999.89
2019-05-21T09:44:48.206Z,999.95
2019-05-21T09:45:48.213Z,999.85
2019-05-21T09:46:48.186Z,999.95
2019-05-21T09:47:48.174Z,999.95
2019-05-21T09:48:48.175Z,999.85
2019-05-21T09:49:48.138Z,1000.01
2019-05-21T09:50:48.157Z,999.87
2019-05-21T09:51:48.123Z,999.98
2019-05-21T09:52:48.113Z,999.89
2019-05-21T09:53:48.115Z,999.93
2019-05-21T09:54:48.087Z,999.94
2019-05-21T09:55:48.127Z,1000.03
2019-05-21T09:56:48.097Z,1000.03
2019-05-21T09:57:48.060Z,999.94
2019-05-21T09:58:48.067Z,999.91
2019-05-21T09:59:48.033Z,999.98
2019-05-21T10:00:48.041Z,999.96
2019-05-21T10:01:48.599Z,999.96
2019-05-21T10:02:48.013Z,1000.01
2019-05-21T10:03:47.987Z,999.92
2019-05-21T10:04:48.000Z,999.94
2019-05-21T10:05:47.973Z,1000.03
2019-05-21T10:06:47.991Z,999.90
2019-05-21T10:07:47.955Z,999.96
2019-05-21T10:08:47.937Z,999.91
2019-05-21T10:09:47.956Z,1000.11
2019-05-21T10:10:47.923Z,1000.01
2019-05-21T10:11:47.922Z,1000.08
2019-05-21T10:12:47.887Z,1000.11
2019-05-21T10:13:47.882Z,1000.00
2019-05-21T10:14:47.868Z,999.98
2019-05-21T10:15:47.859Z,1000.05
2019-05-21T10:16:47.873Z,1000.14
2019-05-21T10:17:47.860Z,1000.04
2019-05-21T10:18:47.819Z,1000.15
2019-05-21T10:19:47.805Z,1000.18
2019-05-21T10:20:47.798Z,1000.06
2019-05-21T10:21:47.869Z,1000.15
2019-05-21T10:22:47.786Z,1000.12
2019-05-21T10:23:47.775Z,1000.00
2019-05-21T10:24:47.768Z,1000.12
2019-05-21T10:25:47.756Z,1000.03
2019-05-21T10:26:47.753Z,1000.06
2019-05-21T10:27:47.722Z,1000.03
2019-05-21T10:28:47.741Z,1000.05
2019-05-21T10:29:47.696Z,999.99
2019-05-21T10:30:47.689Z,1000.03
2019-05-21T10:31:47.697Z,1000.04
2019-05-21T10:32:47.709Z,1000.02
2019-05-21T10:33:47.739Z,1000.04
2019-05-21T10:34:47.643Z,1000.11
2019-05-21T10:35:47.653Z,1000.02
2019-05-21T10:36:47.656Z,999.99
2019-05-21T10:37:55.190Z,1000.12
2019-05-21T10:38:48.632Z,1000.05
2019-05-21T10:39:47.610Z,1000.10
2019-05-21T10:40:47.597Z,1000.17
2019-05-21T10:41:47.700Z,1000.17
2019-05-21T10:42:47.562Z,1000.07
2019-05-21T10:43:47.612Z,1000.04
2019-05-21T10:44:47.759Z,1000.09
2019-05-21T10:45:47.527Z,1000.08
2019-05-21T10:46:47.550Z,1000.02
2019-05-21T10:47:47.508Z,1000.02
2019-05-21T10:48:47.518Z,1000.20
2019-05-21T10:49:47.515Z,1000.14
2019-05-21T10:50:47.495Z,1000.07
2019-05-21T10:51:47.480Z,1000.01
2019-05-21T10:52:47.490Z,1000.09
2019-05-21T10:53:47.446Z,1000.13
2019-05-21T10:54:47.419Z,1000.14
2019-05-21T10:55:47.413Z,1000.18
2019-05-21T10:56:48.605Z,1000.27
2019-05-21T10:57:47.447Z,1000.13
2019-05-21T10:58:47.379Z,1000.29
2019-05-21T10:59:47.371Z,1000.16
2019-05-21T11:00:47.400Z,1000.14
2019-05-21T11:01:47.352Z,1000.13
2019-05-21T11:02:47.355Z,1000.14
2019-05-21T11:03:47.314Z,1000.30
2019-05-21T11:04:47.326Z,1000.17
2019-05-21T11:05:47.301Z,1000.21
2019-05-21T11:06:47.297Z,1000.21
2019-05-21T11:07:47.323Z,1000.19
2019-05-21T11:08:47.276Z,1000.22
2019-05-21T11:09:47.256Z,1000.29
2019-05-21T11:10:47.249Z,1000.30
2019-05-21T11:11:47.249Z,1000.23
2019-05-21T11:12:47.254Z,1000.25
2019-05-21T11:13:47.228Z,1000.22
2019-05-21T11:14:47.211Z,1000.42
2019-05-21T11:15:47.185Z,1000.41
2019-05-21T11:16:47.181Z,1000.39
2019-05-21T11:17:59.153Z,1000.27
2019-05-21T11:18:48.158Z,1000.38
2019-05-21T11:19:47.166Z,1000.38
2019-05-21T11:20:47.151Z,1000.35
2019-05-21T11:21:47.120Z,1000.31
2019-05-21T11:22:47.191Z,1000.27
2019-05-21T11:23:47.149Z,1000.36
2019-05-21T11:24:47.109Z,1000.35
2019-05-21T11:25:47.094Z,1000.29
2019-05-21T11:26:47.071Z,1000.40
2019-05-21T11:27:47.081Z,1000.38
2019-05-21T11:28:47.062Z,1000.40
2019-05-21T11:29:47.040Z,1000.38
2019-05-21T11:30:47.034Z,1000.20
2019-05-21T11:31:56.356Z,1000.20
2019-05-21T11:32:48.196Z,1000.23
2019-05-21T11:33:47.024Z,1000.24
2019-05-21T11:34:50.050Z,1000.37
2019-05-21T11:35:46.968Z,1000.22
2019-05-21T11:36:46.954Z,1000.31
2019-05-21T11:37:48.005Z,1000.27
2019-05-21T11:38:46.938Z,1000.38
2019-05-21T11:39:46.930Z,1000.34
2019-05-21T11:40:50.798Z,1000.39
2019-05-21T11:41:46.915Z,1000.28
2019-05-21T11:42:46.923Z,1000.27
2019-05-21T11:43:46.878Z,1000.25
2019-05-21T11:44:46.881Z,1000.21
2019-05-21T11:45:46.918Z,1000.39
2019-05-21T11:46:46.876Z,1000.36
2019-05-21T11:47:46.853Z,1000.20
2019-05-21T11:48:46.844Z,1000.33
2019-05-21T11:49:46.822Z,1000.24
2019-05-21T11:50:46.815Z,1000.27
2019-05-21T11:51:46.805Z,1000.39
2019-05-21T11:52:46.816Z,1000.25
2019-05-21T11:53:46.780Z,1000.24
2019-05-21T11:54:46.758Z,1000.24
2019-05-21T11:55:46.748Z,1000.30
2019-05-21T11:56:46.748Z,1000.36
2019-05-21T11:57:46.735Z,1000.25
2019-05-21T11:58:46.748Z,1000.25
2019-05-21T11:59:46.703Z,1000.35
2019-05-21T12:00:46.740Z,1000.33
2019-05-21T12:01:46.681Z,1000.42
2019-05-21T12:02:46.833Z,1000.26
2019-05-21T12:03:46.690Z,1000.36
2019-05-21T12:04:46.649Z,1000.25
2019-05-21T12:05:46.629Z,1000.26
2019-05-21T12:06:46.644Z,1000.39
2019-05-21T12:07:46.619Z,1000.39
2019-05-21T12:08:56.183Z,1000.28
2019-05-21T12:09:47.597Z,1000.31
2019-05-21T12:10:46.593Z,1000.42
2019-05-21T12:11:46.601Z,1000.36
2019-05-21T12:12:46.563Z,1000.27
2019-05-21T12:13:46.566Z,1000.35
2019-05-21T12:14:46.549Z,1000.30
2019-05-21T12:15:46.559Z,1000.18
2019-05-21T12:16:46.541Z,1000.18
2019-05-21T12:17:46.519Z,1000.34
2019-05-21T12:18:46.518Z,1000.25
2019-05-21T12:19:46.485Z,1000.23
2019-05-21T12:20:46.478Z,1000.27
2019-05-21T12:21:46.464Z,1000.28
2019-05-21T12:22:46.473Z,1000.19
2019-05-21T12:23:46.456Z,1000.29
2019-05-21T12:24:46.447Z,1000.18